sensor_id;sensor_type;location;lat;lon;timestamp;P1;durP1;ratioP1;P2;durP2;ratioP2
2362;SDS011;1192;51.664;7.626;2022-07-18T00:00:45;1015.90;;;927.38;;
2362;SDS011;1192;51.664;7.626;2022-07-18T00:03:12;990.05;;;902.75;;
2362;SDS011;1192;51.664;7.626;2022-07-18T00:05:39;982.63;;;895.78;;
2362;SDS011;1192;51.664;7.626;2022-07-18T00:08:06;989.58;;;902.40;;
2362;SDS011;1192;51.664;7.626;2022-07-18T00:10:32;998.58;;;911.28;;
2362;SDS011;1192;51.664;7.626;2022-07-18T00:12:59;993.90;;;906.35;;
2362;SDS011;1192;51.664;7.626;2022-07-18T00:15:26;987.13;;;899.88;;
2362;SDS011;1192;51.664;7.626;2022-07-18T00:17:54;993.35;;;906.03;;
2362;SDS011;1192;51.664;7.626;2022-07-18T00:20:20;995.75;;;908.03;;
2362;SDS011;1192;51.664;7.626;2022-07-18T00:22:47;995.83;;;908.17;;
2362;SDS011;1192;51.664;7.626;2022-07-18T00:25:14;993.50;;;905.97;;
2362;SDS011;1192;51.664;7.626;2022-07-18T00:27:41;993.95;;;906.28;;
2362;SDS011;1192;51.664;7.626;2022-07-18T00:30:08;996.45;;;908.47;;
2362;SDS011;1192;51.664;7.626;2022-07-18T00:32:36;990.60;;;903.10;;
2362;SDS011;1192;51.664;7.626;2022-07-18T00:35:05;989.38;;;902.13;;
2362;SDS011;1192;51.664;7.626;2022-07-18T00:37:32;991.47;;;904.00;;
2362;SDS011;1192;51.664;7.626;2022-07-18T00:39:59;977.97;;;890.58;;
2362;SDS011;1192;51.664;7.626;2022-07-18T00:42:26;992.38;;;904.60;;
2362;SDS011;1192;51.664;7.626;2022-07-18T00:44:53;987.42;;;899.90;;
2362;SDS011;1192;51.664;7.626;2022-07-18T00:47:20;993.47;;;905.80;;
2362;SDS011;1192;51.664;7.626;2022-07-18T00:49:47;985.35;;;897.65;;
2362;SDS011;1192;51.664;7.626;2022-07-18T00:52:15;979.10;;;892.05;;
2362;SDS011;1192;51.664;7.626;2022-07-18T00:54:42;990.63;;;903.03;;
2362;SDS011;1192;51.664;7.626;2022-07-18T00:57:09;996.25;;;908.47;;
2362;SDS011;1192;51.664;7.626;2022-07-18T00:59:37;977.53;;;890.60;;
2362;SDS011;1192;51.664;7.626;2022-07-18T01:02:22;975.45;;;888.35;;
2362;SDS011;1192;51.664;7.626;2022-07-18T01:04:49;988.85;;;901.03;;
2362;SDS011;1192;51.664;7.626;2022-07-18T01:07:17;968.15;;;881.20;;
2362;SDS011;1192;51.664;7.626;2022-07-18T01:09:44;965.15;;;877.97;;
2362;SDS011;1192;51.664;7.626;2022-07-18T01:12:10;977.05;;;889.50;;
2362;SDS011;1192;51.664;7.626;2022-07-18T01:14:37;984.08;;;896.10;;
2362;SDS011;1192;51.664;7.626;2022-07-18T01:17:11;975.78;;;888.20;;
2362;SDS011;1192;51.664;7.626;2022-07-18T01:19:38;972.47;;;885.15;;
2362;SDS011;1192;51.664;7.626;2022-07-18T01:22:06;976.63;;;888.88;;
2362;SDS011;1192;51.664;7.626;2022-07-18T01:24:33;968.00;;;880.78;;
2362;SDS011;1192;51.664;7.626;2022-07-18T01:27:00;975.17;;;887.58;;
2362;SDS011;1192;51.664;7.626;2022-07-18T01:29:27;975.95;;;888.63;;
2362;SDS011;1192;51.664;7.626;2022-07-18T01:31:54;973.80;;;886.25;;
2362;SDS011;1192;51.664;7.626;2022-07-18T01:34:21;957.85;;;870.67;;
2362;SDS011;1192;51.664;7.626;2022-07-18T01:36:48;986.08;;;898.35;;
2362;SDS011;1192;51.664;7.626;2022-07-18T01:39:16;971.33;;;883.80;;
2362;SDS011;1192;51.664;7.626;2022-07-18T01:41:43;982.08;;;894.45;;
2362;SDS011;1192;51.664;7.626;2022-07-18T01:44:09;972.05;;;884.28;;
2362;SDS011;1192;51.664;7.626;2022-07-18T01:46:36;970.25;;;882.92;;
2362;SDS011;1192;51.664;7.626;2022-07-18T01:49:03;979.22;;;891.50;;
2362;SDS011;1192;51.664;7.626;2022-07-18T01:51:30;980.13;;;892.35;;
2362;SDS011;1192;51.664;7.626;2022-07-18T01:53:57;975.67;;;888.30;;
2362;SDS011;1192;51.664;7.626;2022-07-18T01:56:27;980.97;;;893.55;;
2362;SDS011;1192;51.664;7.626;2022-07-18T01:58:54;980.53;;;892.67;;
2362;SDS011;1192;51.664;7.626;2022-07-18T02:01:21;977.08;;;889.72;;
2362;SDS011;1192;51.664;7.626;2022-07-18T02:03:48;967.10;;;880.03;;
2362;SDS011;1192;51.664;7.626;2022-07-18T02:06:15;974.17;;;886.83;;
2362;SDS011;1192;51.664;7.626;2022-07-18T02:08:42;954.75;;;867.95;;
2362;SDS011;1192;51.664;7.626;2022-07-18T02:11:08;960.78;;;873.80;;
2362;SDS011;1192;51.664;7.626;2022-07-18T02:13:37;972.15;;;884.78;;
2362;SDS011;1192;51.664;7.626;2022-07-18T02:16:04;958.05;;;870.85;;
2362;SDS011;1192;51.664;7.626;2022-07-18T02:18:31;967.28;;;880.10;;
2362;SDS011;1192;51.664;7.626;2022-07-18T02:20:58;978.05;;;890.17;;
2362;SDS011;1192;51.664;7.626;2022-07-18T02:23:25;971.25;;;883.85;;
2362;SDS011;1192;51.664;7.626;2022-07-18T02:25:52;955.67;;;869.13;;
2362;SDS011;1192;51.664;7.626;2022-07-18T02:28:19;963.42;;;876.20;;
2362;SDS011;1192;51.664;7.626;2022-07-18T02:30:48;961.45;;;874.60;;
2362;SDS011;1192;51.664;7.626;2022-07-18T02:33:14;946.92;;;860.83;;
2362;SDS011;1192;51.664;7.626;2022-07-18T02:35:42;945.30;;;859.28;;
2362;SDS011;1192;51.664;7.626;2022-07-18T02:38:10;937.00;;;851.63;;
2362;SDS011;1192;51.664;7.626;2022-07-18T02:40:37;955.30;;;868.80;;
2362;SDS011;1192;51.664;7.626;2022-07-18T02:43:04;944.95;;;858.42;;
2362;SDS011;1192;51.664;7.626;2022-07-18T02:45:30;943.25;;;857.05;;
2362;SDS011;1192;51.664;7.626;2022-07-18T02:47:58;944.65;;;858.50;;
2362;SDS011;1192;51.664;7.626;2022-07-18T02:50:25;942.35;;;856.13;;
2362;SDS011;1192;51.664;7.626;2022-07-18T02:52:52;953.13;;;866.63;;
2362;SDS011;1192;51.664;7.626;2022-07-18T02:55:21;932.42;;;846.47;;
2362;SDS011;1192;51.664;7.626;2022-07-18T02:57:48;932.78;;;846.65;;
2362;SDS011;1192;51.664;7.626;2022-07-18T03:00:16;937.05;;;851.15;;
2362;SDS011;1192;51.664;7.626;2022-07-18T03:02:43;940.30;;;854.10;;
2362;SDS011;1192;51.664;7.626;2022-07-18T03:05:12;944.45;;;858.22;;
2362;SDS011;1192;51.664;7.626;2022-07-18T03:07:39;937.78;;;851.75;;
2362;SDS011;1192;51.664;7.626;2022-07-18T03:10:06;950.85;;;864.10;;
2362;SDS011;1192;51.664;7.626;2022-07-18T03:12:33;942.35;;;856.13;;
2362;SDS011;1192;51.664;7.626;2022-07-18T03:15:00;949.70;;;863.20;;
2362;SDS011;1192;51.664;7.626;2022-07-18T03:17:27;935.88;;;849.83;;
2362;SDS011;1192;51.664;7.626;2022-07-18T03:19:54;946.40;;;860.17;;
2362;SDS011;1192;51.664;7.626;2022-07-18T03:22:22;931.42;;;845.53;;
2362;SDS011;1192;51.664;7.626;2022-07-18T03:24:48;941.22;;;855.13;;
2362;SDS011;1192;51.664;7.626;2022-07-18T03:27:15;931.50;;;845.35;;
2362;SDS011;1192;51.664;7.626;2022-07-18T03:29:42;924.05;;;838.22;;
2362;SDS011;1192;51.664;7.626;2022-07-18T03:32:08;934.90;;;851.67;;
2362;SDS011;1192;51.664;7.626;2022-07-18T03:34:35;941.33;;;855.13;;
2362;SDS011;1192;51.664;7.626;2022-07-18T03:37:02;938.10;;;852.00;;
2362;SDS011;1192;51.664;7.626;2022-07-18T03:39:30;922.05;;;836.40;;
2362;SDS011;1192;51.664;7.626;2022-07-18T03:41:57;925.83;;;840.05;;
2362;SDS011;1192;51.664;7.626;2022-07-18T03:44:23;924.85;;;839.33;;
2362;SDS011;1192;51.664;7.626;2022-07-18T03:46:50;927.58;;;841.63;;
2362;SDS011;1192;51.664;7.626;2022-07-18T03:49:18;929.65;;;843.78;;
2362;SDS011;1192;51.664;7.626;2022-07-18T03:51:45;912.17;;;826.90;;
2362;SDS011;1192;51.664;7.626;2022-07-18T03:54:12;917.08;;;831.95;;
2362;SDS011;1192;51.664;7.626;2022-07-18T03:56:40;908.22;;;823.00;;
2362;SDS011;1192;51.664;7.626;2022-07-18T03:59:07;921.05;;;835.20;;
2362;SDS011;1192;51.664;7.626;2022-07-18T04:01:34;922.40;;;836.65;;
2362;SDS011;1192;51.664;7.626;2022-07-18T04:04:01;896.13;;;811.42;;
2362;SDS011;1192;51.664;7.626;2022-07-18T04:06:27;915.78;;;830.55;;
2362;SDS011;1192;51.664;7.626;2022-07-18T04:08:54;926.65;;;840.70;;
2362;SDS011;1192;51.664;7.626;2022-07-18T04:11:21;923.40;;;837.60;;
2362;SDS011;1192;51.664;7.626;2022-07-18T04:13:50;918.55;;;833.22;;
2362;SDS011;1192;51.664;7.626;2022-07-18T04:16:17;913.63;;;828.40;;
2362;SDS011;1192;51.664;7.626;2022-07-18T04:18:44;909.65;;;824.33;;
2362;SDS011;1192;51.664;7.626;2022-07-18T04:21:11;932.97;;;847.42;;
2362;SDS011;1192;51.664;7.626;2022-07-18T04:23:38;920.20;;;834.72;;
2362;SDS011;1192;51.664;7.626;2022-07-18T04:26:05;921.63;;;835.95;;
2362;SDS011;1192;51.664;7.626;2022-07-18T04:28:32;912.92;;;827.58;;
2362;SDS011;1192;51.664;7.626;2022-07-18T04:31:00;919.35;;;833.70;;
2362;SDS011;1192;51.664;7.626;2022-07-18T04:33:27;902.45;;;817.45;;
2362;SDS011;1192;51.664;7.626;2022-07-18T04:35:54;908.75;;;823.30;;
2362;SDS011;1192;51.664;7.626;2022-07-18T04:38:20;917.85;;;832.22;;
2362;SDS011;1192;51.664;7.626;2022-07-18T04:40:47;909.88;;;824.78;;
2362;SDS011;1192;51.664;7.626;2022-07-18T04:43:14;909.83;;;824.47;;
2362;SDS011;1192;51.664;7.626;2022-07-18T04:45:41;903.70;;;818.72;;
2362;SDS011;1192;51.664;7.626;2022-07-18T04:48:09;911.55;;;826.40;;
2362;SDS011;1192;51.664;7.626;2022-07-18T04:50:35;898.80;;;814.00;;
2362;SDS011;1192;51.664;7.626;2022-07-18T04:53:02;895.78;;;811.28;;
2362;SDS011;1192;51.664;7.626;2022-07-18T04:55:29;909.63;;;824.55;;
2362;SDS011;1192;51.664;7.626;2022-07-18T04:57:56;906.40;;;821.33;;
2362;SDS011;1192;51.664;7.626;2022-07-18T05:00:23;887.50;;;802.58;;
2362;SDS011;1192;51.664;7.626;2022-07-18T05:02:52;914.42;;;828.63;;
2362;SDS011;1192;51.664;7.626;2022-07-18T05:05:22;903.63;;;818.05;;
2362;SDS011;1192;51.664;7.626;2022-07-18T05:07:50;916.75;;;830.95;;
2362;SDS011;1192;51.664;7.626;2022-07-18T05:10:17;909.05;;;823.50;;
2362;SDS011;1192;51.664;7.626;2022-07-18T05:12:46;913.15;;;827.35;;
2362;SDS011;1192;51.664;7.626;2022-07-18T05:15:16;925.15;;;838.80;;
2362;SDS011;1192;51.664;7.626;2022-07-18T05:17:44;905.63;;;820.15;;
2362;SDS011;1192;51.664;7.626;2022-07-18T05:20:12;917.45;;;831.47;;
2362;SDS011;1192;51.664;7.626;2022-07-18T05:22:42;909.03;;;823.17;;
2362;SDS011;1192;51.664;7.626;2022-07-18T05:25:10;907.42;;;821.75;;
2362;SDS011;1192;51.664;7.626;2022-07-18T05:27:38;890.35;;;805.53;;
2362;SDS011;1192;51.664;7.626;2022-07-18T05:30:06;911.75;;;826.08;;
2362;SDS011;1192;51.664;7.626;2022-07-18T05:32:35;913.25;;;827.58;;
2362;SDS011;1192;51.664;7.626;2022-07-18T05:35:02;927.80;;;841.70;;
2362;SDS011;1192;51.664;7.626;2022-07-18T05:37:30;897.80;;;812.72;;
2362;SDS011;1192;51.664;7.626;2022-07-18T05:39:58;907.90;;;822.55;;
2362;SDS011;1192;51.664;7.626;2022-07-18T05:42:25;898.20;;;812.97;;
2362;SDS011;1192;51.664;7.626;2022-07-18T05:44:51;904.83;;;819.47;;
2362;SDS011;1192;51.664;7.626;2022-07-18T05:47:18;937.70;;;851.42;;
2362;SDS011;1192;51.664;7.626;2022-07-18T05:49:45;936.03;;;849.72;;
2362;SDS011;1192;51.664;7.626;2022-07-18T05:52:12;937.47;;;851.10;;
2362;SDS011;1192;51.664;7.626;2022-07-18T05:54:38;943.63;;;857.13;;
2362;SDS011;1192;51.664;7.626;2022-07-18T05:57:07;953.88;;;867.10;;
2362;SDS011;1192;51.664;7.626;2022-07-18T05:59:34;959.63;;;872.75;;
2362;SDS011;1192;51.664;7.626;2022-07-18T06:02:00;955.88;;;869.58;;
2362;SDS011;1192;51.664;7.626;2022-07-18T06:04:27;974.30;;;887.42;;
2362;SDS011;1192;51.664;7.626;2022-07-18T06:06:54;973.90;;;887.33;;
2362;SDS011;1192;51.664;7.626;2022-07-18T06:09:21;992.65;;;905.22;;
2362;SDS011;1192;51.664;7.626;2022-07-18T06:11:47;977.22;;;890.20;;
2362;SDS011;1192;51.664;7.626;2022-07-18T06:14:16;1003.30;;;915.20;;
2362;SDS011;1192;51.664;7.626;2022-07-18T06:16:42;1008.80;;;920.13;;
2362;SDS011;1192;51.664;7.626;2022-07-18T06:19:09;1009.92;;;921.47;;
2362;SDS011;1192;51.664;7.626;2022-07-18T06:21:36;1028.20;;;939.28;;
2362;SDS011;1192;51.664;7.626;2022-07-18T06:24:03;1022.28;;;933.38;;
2362;SDS011;1192;51.664;7.626;2022-07-18T06:26:30;1020.40;;;931.72;;
2362;SDS011;1192;51.664;7.626;2022-07-18T06:28:57;1033.95;;;944.83;;
2362;SDS011;1192;51.664;7.626;2022-07-18T06:31:25;1035.07;;;946.30;;
2362;SDS011;1192;51.664;7.626;2022-07-18T06:33:53;1022.25;;;934.30;;
2362;SDS011;1192;51.664;7.626;2022-07-18T06:36:20;1022.75;;;934.97;;
2362;SDS011;1192;51.664;7.626;2022-07-18T06:38:48;1020.35;;;932.72;;
2362;SDS011;1192;51.664;7.626;2022-07-18T06:41:15;1027.82;;;939.88;;
2362;SDS011;1192;51.664;7.626;2022-07-18T06:43:42;1036.28;;;948.13;;
2362;SDS011;1192;51.664;7.626;2022-07-18T06:46:09;1028.38;;;940.42;;
2362;SDS011;1192;51.664;7.626;2022-07-18T06:48:37;1027.75;;;940.17;;
2362;SDS011;1192;51.664;7.626;2022-07-18T06:51:04;1017.28;;;929.97;;
2362;SDS011;1192;51.664;7.626;2022-07-18T06:53:31;1023.47;;;935.75;;
2362;SDS011;1192;51.664;7.626;2022-07-18T06:55:59;1025.70;;;938.05;;
2362;SDS011;1192;51.664;7.626;2022-07-18T06:58:27;1039.22;;;950.88;;
2362;SDS011;1192;51.664;7.626;2022-07-18T07:00:55;1040.03;;;951.88;;
2362;SDS011;1192;51.664;7.626;2022-07-18T07:03:22;1037.50;;;949.03;;
2362;SDS011;1192;51.664;7.626;2022-07-18T07:05:50;1067.80;;;977.70;;
2362;SDS011;1192;51.664;7.626;2022-07-18T07:08:17;1049.65;;;960.63;;
2362;SDS011;1192;51.664;7.626;2022-07-18T07:10:44;1077.70;;;987.38;;
2362;SDS011;1192;51.664;7.626;2022-07-18T07:13:10;1068.50;;;978.65;;
2362;SDS011;1192;51.664;7.626;2022-07-18T07:15:37;1078.15;;;988.05;;
2362;SDS011;1192;51.664;7.626;2022-07-18T07:18:05;1087.60;;;994.45;;
2362;SDS011;1192;51.664;7.626;2022-07-18T07:20:32;1102.00;;;999.67;;
2362;SDS011;1192;51.664;7.626;2022-07-18T07:23:00;1098.45;;;998.83;;
2362;SDS011;1192;51.664;7.626;2022-07-18T07:25:32;1096.13;;;998.33;;
2362;SDS011;1192;51.664;7.626;2022-07-18T07:27:59;1100.95;;;999.38;;
2362;SDS011;1192;51.664;7.626;2022-07-18T07:30:26;1086.40;;;994.95;;
2362;SDS011;1192;51.664;7.626;2022-07-18T07:32:53;1103.30;;;999.90;;
2362;SDS011;1192;51.664;7.626;2022-07-18T07:35:20;1097.93;;;998.60;;
2362;SDS011;1192;51.664;7.626;2022-07-18T07:37:49;1120.35;;;999.90;;
2362;SDS011;1192;51.664;7.626;2022-07-18T07:40:18;1113.15;;;999.90;;
2362;SDS011;1192;51.664;7.626;2022-07-18T07:42:45;1109.70;;;999.90;;
2362;SDS011;1192;51.664;7.626;2022-07-18T07:45:12;1100.72;;;999.90;;
2362;SDS011;1192;51.664;7.626;2022-07-18T07:47:39;1112.32;;;999.90;;
2362;SDS011;1192;51.664;7.626;2022-07-18T07:50:07;1105.25;;;999.90;;
2362;SDS011;1192;51.664;7.626;2022-07-18T07:52:35;1098.57;;;999.65;;
2362;SDS011;1192;51.664;7.626;2022-07-18T07:55:02;1098.70;;;999.08;;
2362;SDS011;1192;51.664;7.626;2022-07-18T07:57:32;1104.60;;;999.90;;
2362;SDS011;1192;51.664;7.626;2022-07-18T08:00:01;1114.85;;;999.90;;
2362;SDS011;1192;51.664;7.626;2022-07-18T08:02:29;1107.55;;;999.90;;
2362;SDS011;1192;51.664;7.626;2022-07-18T08:04:56;1118.10;;;999.90;;
2362;SDS011;1192;51.664;7.626;2022-07-18T08:07:23;1101.55;;;999.58;;
2362;SDS011;1192;51.664;7.626;2022-07-18T08:09:49;1116.55;;;999.90;;
2362;SDS011;1192;51.664;7.626;2022-07-18T08:12:16;1112.22;;;999.90;;
2362;SDS011;1192;51.664;7.626;2022-07-18T08:14:44;1115.65;;;999.90;;
2362;SDS011;1192;51.664;7.626;2022-07-18T08:17:11;1122.80;;;999.90;;
2362;SDS011;1192;51.664;7.626;2022-07-18T08:19:38;1116.57;;;999.90;;
2362;SDS011;1192;51.664;7.626;2022-07-18T08:22:04;1132.70;;;999.90;;
2362;SDS011;1192;51.664;7.626;2022-07-18T08:24:31;1132.65;;;999.90;;
2362;SDS011;1192;51.664;7.626;2022-07-18T08:26:58;1124.80;;;999.90;;
2362;SDS011;1192;51.664;7.626;2022-07-18T08:29:25;1117.53;;;999.90;;
2362;SDS011;1192;51.664;7.626;2022-07-18T08:31:53;1140.45;;;999.90;;
2362;SDS011;1192;51.664;7.626;2022-07-18T08:34:19;1134.68;;;999.90;;
2362;SDS011;1192;51.664;7.626;2022-07-18T08:36:46;1150.97;;;999.90;;
2362;SDS011;1192;51.664;7.626;2022-07-18T08:39:13;1138.32;;;999.90;;
2362;SDS011;1192;51.664;7.626;2022-07-18T08:41:40;1136.30;;;999.90;;
2362;SDS011;1192;51.664;7.626;2022-07-18T08:44:11;1123.15;;;999.90;;
2362;SDS011;1192;51.664;7.626;2022-07-18T08:46:39;1138.03;;;999.90;;
2362;SDS011;1192;51.664;7.626;2022-07-18T08:49:07;1141.47;;;999.90;;
2362;SDS011;1192;51.664;7.626;2022-07-18T08:51:34;1143.57;;;999.90;;
2362;SDS011;1192;51.664;7.626;2022-07-18T08:54:01;1154.50;;;999.90;;
2362;SDS011;1192;51.664;7.626;2022-07-18T08:56:28;1162.85;;;999.90;;
2362;SDS011;1192;51.664;7.626;2022-07-18T08:58:55;1141.93;;;999.90;;
2362;SDS011;1192;51.664;7.626;2022-07-18T09:01:22;1144.88;;;999.90;;
2362;SDS011;1192;51.664;7.626;2022-07-18T09:03:48;1151.15;;;999.90;;
2362;SDS011;1192;51.664;7.626;2022-07-18T09:06:43;1155.82;;;999.90;;
2362;SDS011;1192;51.664;7.626;2022-07-18T09:09:11;1144.95;;;999.90;;
2362;SDS011;1192;51.664;7.626;2022-07-18T09:11:49;1149.40;;;999.90;;
2362;SDS011;1192;51.664;7.626;2022-07-18T09:14:27;1152.25;;;999.90;;
2362;SDS011;1192;51.664;7.626;2022-07-18T09:16:59;1150.15;;;999.90;;
2362;SDS011;1192;51.664;7.626;2022-07-18T09:19:30;1144.45;;;999.90;;
2362;SDS011;1192;51.664;7.626;2022-07-18T09:22:14;1162.03;;;999.90;;
2362;SDS011;1192;51.664;7.626;2022-07-18T09:24:49;1156.38;;;999.90;;
2362;SDS011;1192;51.664;7.626;2022-07-18T09:27:31;1139.00;;;999.90;;
2362;SDS011;1192;51.664;7.626;2022-07-18T09:30:19;1160.97;;;999.90;;
2362;SDS011;1192;51.664;7.626;2022-07-18T09:32:49;1162.95;;;999.90;;
2362;SDS011;1192;51.664;7.626;2022-07-18T09:35:18;1161.32;;;999.90;;
2362;SDS011;1192;51.664;7.626;2022-07-18T09:37:56;1149.80;;;999.90;;
2362;SDS011;1192;51.664;7.626;2022-07-18T09:40:26;1155.20;;;999.90;;
2362;SDS011;1192;51.664;7.626;2022-07-18T09:42:55;1165.47;;;999.90;;
2362;SDS011;1192;51.664;7.626;2022-07-18T09:45:24;1160.60;;;999.90;;
2362;SDS011;1192;51.664;7.626;2022-07-18T09:47:53;1144.10;;;999.90;;
2362;SDS011;1192;51.664;7.626;2022-07-18T09:50:22;1156.35;;;999.90;;
2362;SDS011;1192;51.664;7.626;2022-07-18T09:52:56;1148.60;;;999.90;;
2362;SDS011;1192;51.664;7.626;2022-07-18T09:55:31;1151.75;;;999.90;;
2362;SDS011;1192;51.664;7.626;2022-07-18T09:58:00;1163.60;;;999.90;;
2362;SDS011;1192;51.664;7.626;2022-07-18T10:00:30;1156.45;;;999.90;;
2362;SDS011;1192;51.664;7.626;2022-07-18T10:02:59;1158.83;;;999.90;;
2362;SDS011;1192;51.664;7.626;2022-07-18T10:05:27;1156.70;;;999.90;;
2362;SDS011;1192;51.664;7.626;2022-07-18T10:07:58;1142.70;;;999.90;;
2362;SDS011;1192;51.664;7.626;2022-07-18T10:10:27;1146.53;;;999.90;;
2362;SDS011;1192;51.664;7.626;2022-07-18T10:12:56;1156.27;;;999.90;;
2362;SDS011;1192;51.664;7.626;2022-07-18T10:15:26;1145.73;;;999.90;;
2362;SDS011;1192;51.664;7.626;2022-07-18T10:17:53;1144.67;;;999.90;;
2362;SDS011;1192;51.664;7.626;2022-07-18T10:20:24;1138.25;;;999.90;;
2362;SDS011;1192;51.664;7.626;2022-07-18T10:22:54;1147.63;;;999.90;;
2362;SDS011;1192;51.664;7.626;2022-07-18T10:25:24;1146.77;;;999.90;;
2362;SDS011;1192;51.664;7.626;2022-07-18T10:27:52;1149.70;;;999.90;;
2362;SDS011;1192;51.664;7.626;2022-07-18T10:30:30;1141.73;;;999.90;;
2362;SDS011;1192;51.664;7.626;2022-07-18T10:32:59;1132.77;;;999.90;;
2362;SDS011;1192;51.664;7.626;2022-07-18T10:38:26;1133.47;;;999.90;;
2362;SDS011;1192;51.664;7.626;2022-07-18T10:41:06;1130.57;;;999.90;;
2362;SDS011;1192;51.664;7.626;2022-07-18T10:43:47;1132.03;;;999.90;;
2362;SDS011;1192;51.664;7.626;2022-07-18T10:46:13;1124.80;;;999.90;;
2362;SDS011;1192;51.664;7.626;2022-07-18T10:48:47;1129.87;;;999.90;;
2362;SDS011;1192;51.664;7.626;2022-07-18T10:51:18;1128.93;;;999.90;;
2362;SDS011;1192;51.664;7.626;2022-07-18T10:53:57;1125.23;;;999.90;;
2362;SDS011;1192;51.664;7.626;2022-07-18T10:59:24;1123.00;;;999.90;;
2362;SDS011;1192;51.664;7.626;2022-07-18T11:01:53;1114.20;;;999.90;;
2362;SDS011;1192;51.664;7.626;2022-07-18T11:04:21;1114.97;;;999.90;;
2362;SDS011;1192;51.664;7.626;2022-07-18T11:06:52;1125.13;;;999.90;;
2362;SDS011;1192;51.664;7.626;2022-07-18T11:09:32;1119.80;;;999.90;;
2362;SDS011;1192;51.664;7.626;2022-07-18T11:12:21;1116.47;;;999.90;;
2362;SDS011;1192;51.664;7.626;2022-07-18T11:15:04;1125.97;;;999.90;;
2362;SDS011;1192;51.664;7.626;2022-07-18T11:17:58;1125.37;;;999.90;;
2362;SDS011;1192;51.664;7.626;2022-07-18T11:20:27;1117.07;;;999.90;;
2362;SDS011;1192;51.664;7.626;2022-07-18T11:22:56;1107.43;;;999.90;;
2362;SDS011;1192;51.664;7.626;2022-07-18T11:25:27;1120.40;;;999.90;;
2362;SDS011;1192;51.664;7.626;2022-07-18T11:27:55;1107.47;;;999.90;;
2362;SDS011;1192;51.664;7.626;2022-07-18T11:30:23;1126.27;;;999.90;;
2362;SDS011;1192;51.664;7.626;2022-07-18T11:32:50;1119.10;;;999.90;;
2362;SDS011;1192;51.664;7.626;2022-07-18T11:35:20;1124.73;;;999.90;;
2362;SDS011;1192;51.664;7.626;2022-07-18T11:37:48;1123.60;;;999.90;;
2362;SDS011;1192;51.664;7.626;2022-07-18T11:40:16;1125.10;;;999.90;;
2362;SDS011;1192;51.664;7.626;2022-07-18T11:42:44;1134.30;;;999.90;;
2362;SDS011;1192;51.664;7.626;2022-07-18T11:45:12;1130.00;;;999.90;;
2362;SDS011;1192;51.664;7.626;2022-07-18T11:47:45;1119.60;;;999.90;;
2362;SDS011;1192;51.664;7.626;2022-07-18T11:50:12;1125.40;;;999.90;;
2362;SDS011;1192;51.664;7.626;2022-07-18T11:52:39;1136.10;;;999.90;;
2362;SDS011;1192;51.664;7.626;2022-07-18T11:55:07;1136.10;;;999.90;;
2362;SDS011;1192;51.664;7.626;2022-07-18T11:57:34;1124.13;;;999.90;;
2362;SDS011;1192;51.664;7.626;2022-07-18T12:00:12;1141.10;;;999.90;;
2362;SDS011;1192;51.664;7.626;2022-07-18T12:02:40;1126.53;;;999.90;;
2362;SDS011;1192;51.664;7.626;2022-07-18T12:05:07;1123.57;;;999.90;;
2362;SDS011;1192;51.664;7.626;2022-07-18T12:07:34;1136.10;;;999.90;;
2362;SDS011;1192;51.664;7.626;2022-07-18T12:10:14;1129.20;;;999.90;;
2362;SDS011;1192;51.664;7.626;2022-07-18T12:12:42;1121.15;;;999.90;;
2362;SDS011;1192;51.664;7.626;2022-07-18T12:15:10;1120.72;;;999.90;;
2362;SDS011;1192;51.664;7.626;2022-07-18T12:17:42;1128.07;;;999.90;;
2362;SDS011;1192;51.664;7.626;2022-07-18T12:20:11;1134.70;;;999.90;;
2362;SDS011;1192;51.664;7.626;2022-07-18T12:28:22;1121.50;;;999.90;;
2362;SDS011;1192;51.664;7.626;2022-07-18T12:30:52;1108.07;;;999.90;;
2362;SDS011;1192;51.664;7.626;2022-07-18T12:33:20;1116.43;;;999.90;;
2362;SDS011;1192;51.664;7.626;2022-07-18T12:35:53;1119.70;;;999.90;;
2362;SDS011;1192;51.664;7.626;2022-07-18T12:38:21;1116.20;;;999.90;;
2362;SDS011;1192;51.664;7.626;2022-07-18T12:40:48;1116.37;;;999.90;;
2362;SDS011;1192;51.664;7.626;2022-07-18T12:43:22;1106.73;;;999.90;;
2362;SDS011;1192;51.664;7.626;2022-07-18T12:45:52;1115.33;;;999.90;;
2362;SDS011;1192;51.664;7.626;2022-07-18T12:48:20;1120.17;;;999.90;;
2362;SDS011;1192;51.664;7.626;2022-07-18T12:50:54;1136.80;;;999.90;;
2362;SDS011;1192;51.664;7.626;2022-07-18T12:53:22;1131.67;;;999.90;;
2362;SDS011;1192;51.664;7.626;2022-07-18T12:55:49;1118.40;;;999.90;;
2362;SDS011;1192;51.664;7.626;2022-07-18T12:58:16;1118.97;;;999.90;;
2362;SDS011;1192;51.664;7.626;2022-07-18T13:00:46;1122.33;;;999.90;;
2362;SDS011;1192;51.664;7.626;2022-07-18T13:03:16;1146.60;;;999.90;;
2362;SDS011;1192;51.664;7.626;2022-07-18T13:05:43;1171.07;;;999.90;;
2362;SDS011;1192;51.664;7.626;2022-07-18T13:08:10;1178.13;;;999.90;;
2362;SDS011;1192;51.664;7.626;2022-07-18T13:10:37;1179.60;;;999.90;;
2362;SDS011;1192;51.664;7.626;2022-07-18T13:13:04;1219.67;;;999.90;;
2362;SDS011;1192;51.664;7.626;2022-07-18T13:15:32;1226.10;;;999.90;;
2362;SDS011;1192;51.664;7.626;2022-07-18T13:18:00;1230.43;;;999.90;;
2362;SDS011;1192;51.664;7.626;2022-07-18T13:20:28;1234.80;;;999.90;;
2362;SDS011;1192;51.664;7.626;2022-07-18T13:22:55;1216.40;;;999.90;;
2362;SDS011;1192;51.664;7.626;2022-07-18T13:25:26;1234.83;;;999.90;;
2362;SDS011;1192;51.664;7.626;2022-07-18T13:27:54;1210.63;;;999.90;;
2362;SDS011;1192;51.664;7.626;2022-07-18T13:30:21;1215.03;;;999.90;;
2362;SDS011;1192;51.664;7.626;2022-07-18T13:32:47;1191.67;;;999.90;;
2362;SDS011;1192;51.664;7.626;2022-07-18T13:35:14;1203.60;;;999.90;;
2362;SDS011;1192;51.664;7.626;2022-07-18T13:37:43;1201.05;;;999.90;;
2362;SDS011;1192;51.664;7.626;2022-07-18T13:40:10;1187.10;;;999.90;;
2362;SDS011;1192;51.664;7.626;2022-07-18T13:42:38;1177.00;;;999.90;;
2362;SDS011;1192;51.664;7.626;2022-07-18T13:45:06;1184.22;;;999.90;;
2362;SDS011;1192;51.664;7.626;2022-07-18T13:47:33;1171.77;;;999.90;;
2362;SDS011;1192;51.664;7.626;2022-07-18T13:50:00;1173.17;;;999.90;;
2362;SDS011;1192;51.664;7.626;2022-07-18T13:52:27;1160.73;;;999.90;;
2362;SDS011;1192;51.664;7.626;2022-07-18T13:54:55;1166.67;;;999.90;;
2362;SDS011;1192;51.664;7.626;2022-07-18T13:57:22;1166.00;;;999.90;;
2362;SDS011;1192;51.664;7.626;2022-07-18T13:59:48;1171.57;;;999.90;;
2362;SDS011;1192;51.664;7.626;2022-07-18T14:02:15;1175.23;;;999.90;;
2362;SDS011;1192;51.664;7.626;2022-07-18T14:04:42;1165.70;;;999.90;;
2362;SDS011;1192;51.664;7.626;2022-07-18T14:07:09;1185.47;;;999.90;;
2362;SDS011;1192;51.664;7.626;2022-07-18T14:09:36;1185.93;;;999.90;;
2362;SDS011;1192;51.664;7.626;2022-07-18T14:12:05;1169.87;;;999.90;;
2362;SDS011;1192;51.664;7.626;2022-07-18T14:14:32;1176.30;;;999.90;;
2362;SDS011;1192;51.664;7.626;2022-07-18T14:16:58;1162.97;;;999.90;;
2362;SDS011;1192;51.664;7.626;2022-07-18T14:19:25;1175.53;;;999.90;;
2362;SDS011;1192;51.664;7.626;2022-07-18T14:21:52;1184.10;;;999.90;;
2362;SDS011;1192;51.664;7.626;2022-07-18T14:24:19;1182.00;;;999.90;;
2362;SDS011;1192;51.664;7.626;2022-07-18T14:26:45;1186.63;;;999.90;;
2362;SDS011;1192;51.664;7.626;2022-07-18T14:29:13;1166.77;;;999.90;;
2362;SDS011;1192;51.664;7.626;2022-07-18T14:31:40;1161.20;;;999.90;;